createdAt,value
2023-05-05T00:01:06.219Z,14.80
2023-05-05T00:03:34.399Z,14.76
2023-05-05T00:06:01.225Z,14.72
2023-05-05T00:08:28.485Z,14.69
2023-05-05T00:10:55.994Z,14.70
2023-05-05T00:13:22.942Z,14.65
2023-05-05T00:15:51.378Z,14.69
2023-05-05T00:18:18.801Z,14.68
2023-05-05T00:20:47.188Z,14.63
2023-05-05T00:23:14.994Z,14.64
2023-05-05T00:25:41.590Z,14.65
2023-05-05T00:28:08.062Z,14.62
2023-05-05T00:30:34.672Z,14.61
2023-05-05T00:33:01.547Z,14.58
2023-05-05T00:35:28.002Z,14.56
2023-05-05T00:37:55.180Z,14.58
2023-05-05T00:40:21.765Z,14.56
2023-05-05T00:42:50.686Z,14.53
2023-05-05T00:45:18.190Z,14.46
2023-05-05T00:47:54.066Z,14.42
2023-05-05T00:50:25.358Z,14.41
2023-05-05T00:53:03.402Z,14.41
2023-05-05T00:55:30.806Z,14.40
2023-05-05T00:57:58.054Z,14.41
2023-05-05T01:00:25.103Z,14.42
2023-05-05T01:02:52.625Z,14.43
2023-05-05T01:05:23.719Z,14.44
2023-05-05T01:08:16.491Z,14.44
2023-05-05T01:10:52.940Z,14.41
2023-05-05T01:13:22.696Z,14.40
2023-05-05T01:15:58.903Z,14.39
2023-05-05T01:18:36.859Z,14.32
2023-05-05T01:21:20.315Z,14.30
2023-05-05T01:24:04.342Z,14.27
2023-05-05T01:26:48.009Z,14.33
2023-05-05T01:29:52.126Z,14.36
2023-05-05T01:32:26.032Z,14.39
2023-05-05T01:34:58.439Z,14.44
2023-05-05T01:37:29.267Z,14.51
2023-05-05T01:40:03.787Z,14.57
2023-05-05T01:42:31.708Z,14.58
2023-05-05T01:44:59.508Z,14.60
2023-05-05T01:47:27.836Z,14.65
2023-05-05T01:49:54.496Z,14.66
2023-05-05T01:52:22.715Z,14.65
2023-05-05T01:54:50.501Z,14.68
2023-05-05T01:57:18.196Z,14.70
2023-05-05T01:59:44.630Z,14.71
2023-05-05T02:02:13.250Z,14.73
2023-05-05T02:04:43.697Z,14.77
2023-05-05T02:07:12.582Z,14.81
2023-05-05T02:09:40.784Z,14.83
2023-05-05T02:12:08.379Z,14.86
2023-05-05T02:14:36.139Z,14.89
2023-05-05T02:17:04.045Z,14.89
2023-05-05T02:19:36.307Z,14.91
2023-05-05T02:22:03.052Z,14.89
2023-05-05T02:24:29.579Z,14.84
2023-05-05T02:26:58.421Z,14.77
2023-05-05T02:29:49.419Z,14.70
2023-05-05T02:32:27.700Z,14.66
2023-05-05T02:34:55.320Z,14.61
2023-05-05T02:37:24.066Z,14.57
2023-05-05T02:40:06.572Z,14.53
2023-05-05T02:42:40.136Z,14.46
2023-05-05T02:45:14.392Z,14.40
2023-05-05T02:47:40.972Z,14.31
2023-05-05T02:50:09.100Z,14.24
2023-05-05T02:52:36.127Z,14.18
2023-05-05T02:55:04.240Z,14.10
2023-05-05T02:57:51.513Z,14.02
2023-05-05T03:00:40.646Z,13.98
2023-05-05T03:03:22.128Z,13.91
2023-05-05T03:06:00.614Z,13.82
2023-05-05T03:08:33.925Z,13.77
2023-05-05T03:11:13.361Z,13.70
2023-05-05T03:13:43.943Z,13.63
2023-05-05T03:16:13.180Z,13.54
2023-05-05T03:18:42.326Z,13.49
2023-05-05T03:21:09.462Z,13.42
2023-05-05T03:23:36.256Z,13.39
2023-05-05T03:26:02.845Z,13.33
2023-05-05T03:28:29.429Z,13.30
2023-05-05T03:30:56.364Z,13.22
2023-05-05T03:33:22.903Z,13.20
2023-05-05T03:35:49.264Z,13.19
2023-05-05T03:38:15.651Z,13.17
2023-05-05T03:40:44.603Z,13.17
2023-05-05T03:43:11.506Z,13.17
2023-05-05T03:45:38.026Z,13.16
2023-05-05T03:48:04.854Z,13.14
2023-05-05T03:50:31.618Z,13.08
2023-05-05T03:52:57.958Z,13.06
2023-05-05T03:55:24.555Z,13.01
2023-05-05T03:57:51.002Z,12.91
2023-05-05T04:00:17.960Z,12.84
2023-05-05T04:02:44.526Z,12.78
2023-05-05T04:05:11.027Z,12.84
2023-05-05T04:07:37.502Z,12.88
2023-05-05T04:10:04.189Z,12.90
2023-05-05T04:12:30.710Z,12.88
2023-05-05T04:14:57.190Z,12.84
2023-05-05T04:17:23.781Z,12.85
2023-05-05T04:19:50.238Z,12.83
2023-05-05T04:22:16.742Z,12.82
2023-05-05T04:24:43.107Z,12.82
2023-05-05T04:27:09.515Z,12.84
2023-05-05T04:29:36.106Z,12.81
2023-05-05T04:32:02.523Z,12.78
2023-05-05T04:34:29.046Z,12.76
2023-05-05T04:36:55.426Z,12.70
2023-05-05T04:39:21.862Z,12.65
2023-05-05T04:41:48.271Z,12.64
2023-05-05T04:44:14.659Z,12.66
2023-05-05T04:46:41.459Z,12.68
2023-05-05T04:49:09.131Z,12.69
2023-05-05T04:51:35.653Z,12.70
2023-05-05T04:54:02.126Z,12.75
2023-05-05T04:56:31.895Z,12.78
2023-05-05T04:58:58.387Z,12.79
2023-05-05T05:01:25.034Z,12.81
2023-05-05T05:03:51.465Z,12.82
2023-05-05T05:06:17.867Z,12.83
2023-05-05T05:08:44.330Z,12.83
2023-05-05T05:11:10.858Z,12.83
2023-05-05T05:13:37.290Z,12.85
2023-05-05T05:16:03.877Z,12.88
2023-05-05T05:18:30.625Z,12.88
2023-05-05T05:20:57.001Z,12.92
2023-05-05T05:23:23.763Z,12.94
2023-05-05T05:25:50.711Z,12.98
2023-05-05T05:28:17.154Z,13.01
2023-05-05T05:30:43.555Z,13.04
2023-05-05T05:33:10.551Z,13.06
2023-05-05T05:35:37.148Z,13.09
2023-05-05T05:38:03.689Z,13.12
2023-05-05T05:40:30.102Z,13.16
2023-05-05T05:42:56.948Z,13.20
2023-05-05T05:45:26.388Z,13.24
2023-05-05T05:47:52.882Z,13.28
2023-05-05T05:50:19.384Z,13.33
2023-05-05T05:52:45.864Z,13.35
2023-05-05T05:55:12.356Z,13.43
2023-05-05T05:57:38.825Z,13.45
2023-05-05T06:00:06.320Z,13.49
2023-05-05T06:02:33.000Z,13.54
2023-05-05T06:04:59.410Z,13.60
2023-05-05T06:07:26.267Z,13.65
2023-05-05T06:09:52.658Z,13.71
2023-05-05T06:12:19.015Z,13.76
2023-05-05T06:14:45.586Z,13.84
2023-05-05T06:17:11.976Z,14.03
2023-05-05T06:19:43.321Z,16.08
2023-05-05T06:22:09.719Z,18.66
2023-05-05T06:24:36.114Z,19.45
2023-05-05T06:27:02.563Z,20.13
2023-05-05T06:29:28.998Z,19.82
2023-05-05T06:31:55.597Z,19.73
2023-05-05T06:34:22.004Z,19.95
2023-05-05T06:36:48.407Z,19.54
2023-05-05T06:39:16.085Z,19.16
2023-05-05T06:41:42.822Z,18.71
2023-05-05T06:44:10.623Z,18.55
2023-05-05T06:46:37.186Z,18.18
2023-05-05T06:49:03.653Z,18.04
2023-05-05T06:51:30.255Z,18.09
2023-05-05T06:53:56.786Z,18.00
2023-05-05T06:56:23.877Z,17.94
2023-05-05T06:58:50.483Z,18.01
2023-05-05T07:01:17.089Z,18.02
2023-05-05T07:03:43.996Z,18.04
2023-05-05T07:06:10.424Z,18.00
2023-05-05T07:08:36.832Z,17.98
2023-05-05T07:11:03.342Z,17.97
2023-05-05T07:13:29.861Z,18.18
2023-05-05T07:15:56.752Z,18.30
2023-05-05T07:18:23.515Z,18.37
2023-05-05T07:20:49.925Z,18.54
2023-05-05T07:23:16.299Z,18.57
2023-05-05T07:25:42.729Z,18.39
2023-05-05T07:28:09.772Z,18.20
2023-05-05T07:30:36.192Z,18.18
2023-05-05T07:33:03.077Z,18.47
2023-05-05T07:35:30.494Z,18.72
2023-05-05T07:37:57.038Z,18.95
2023-05-05T07:40:23.870Z,19.23
2023-05-05T07:42:50.373Z,19.15
2023-05-05T07:45:16.863Z,19.12
2023-05-05T07:47:43.336Z,19.31
2023-05-05T07:50:10.324Z,19.48
2023-05-05T07:52:45.161Z,19.50
2023-05-05T07:55:12.968Z,19.47
2023-05-05T07:57:39.460Z,19.31
2023-05-05T08:00:06.714Z,19.32
2023-05-05T08:02:33.463Z,19.38
2023-05-05T08:04:59.937Z,19.59
2023-05-05T08:07:26.424Z,19.94
2023-05-05T08:09:52.762Z,20.10
2023-05-05T08:12:19.367Z,20.45
2023-05-05T08:14:45.740Z,20.43
2023-05-05T08:17:12.110Z,20.64
2023-05-05T08:19:38.509Z,20.82
2023-05-05T08:22:04.938Z,20.95
2023-05-05T08:24:31.790Z,21.30
2023-05-05T08:26:58.287Z,21.26
2023-05-05T08:29:24.682Z,21.24
2023-05-05T08:31:51.470Z,21.50
2023-05-05T08:34:17.975Z,21.72
2023-05-05T08:36:44.394Z,21.49
2023-05-05T08:39:10.872Z,21.31
2023-05-05T08:41:37.475Z,21.02
2023-05-05T08:44:03.959Z,20.69
2023-05-05T08:46:31.483Z,20.51
2023-05-05T08:48:58.767Z,20.43
2023-05-05T08:51:31.673Z,20.37
2023-05-05T08:54:03.239Z,20.34
2023-05-05T08:56:34.140Z,20.47
2023-05-05T08:59:02.038Z,20.22
2023-05-05T09:01:29.960Z,20.28
2023-05-05T09:03:58.467Z,20.31
2023-05-05T09:06:27.343Z,20.23
2023-05-05T09:08:54.204Z,20.10
2023-05-05T09:11:21.553Z,20.13
2023-05-05T09:13:48.440Z,20.07
2023-05-05T09:16:14.946Z,20.10
2023-05-05T09:18:42.656Z,20.06
2023-05-05T09:21:25.956Z,20.03
2023-05-05T09:24:08.554Z,20.11
2023-05-05T09:26:37.549Z,20.13
2023-05-05T09:29:04.913Z,20.28
2023-05-05T09:31:32.658Z,20.49
2023-05-05T09:34:01.111Z,20.55
2023-05-05T09:36:43.799Z,20.43
2023-05-05T09:39:10.588Z,20.28
2023-05-05T09:41:38.596Z,20.18
2023-05-05T09:44:05.285Z,20.06
2023-05-05T09:46:32.030Z,19.90
2023-05-05T09:49:19.837Z,19.72
2023-05-05T09:51:47.545Z,19.59
2023-05-05T09:54:28.787Z,19.70
2023-05-05T09:56:56.521Z,19.78
2023-05-05T09:59:23.922Z,19.92
2023-05-05T10:01:51.126Z,19.92
2023-05-05T10:04:28.337Z,19.93
2023-05-05T10:06:59.133Z,19.81
2023-05-05T10:09:26.804Z,19.78
2023-05-05T10:11:54.645Z,19.83
2023-05-05T10:14:21.261Z,19.88
2023-05-05T10:16:54.164Z,19.71
2023-05-05T10:19:22.674Z,18.96
2023-05-05T10:21:53.842Z,17.47
2023-05-05T10:24:34.491Z,16.19
2023-05-05T10:27:04.140Z,15.60
2023-05-05T10:29:37.114Z,15.40
2023-05-05T10:32:36.991Z,15.17
2023-05-05T10:35:03.801Z,15.18
2023-05-05T10:37:31.023Z,15.31
2023-05-05T10:39:58.673Z,15.30
2023-05-05T10:42:25.620Z,15.31
2023-05-05T10:44:52.273Z,15.40
2023-05-05T10:47:20.744Z,15.38
2023-05-05T10:50:12.998Z,15.30
2023-05-05T10:52:48.586Z,15.24
2023-05-05T10:55:31.685Z,15.13
2023-05-05T10:57:58.107Z,15.05
2023-05-05T11:00:39.788Z,15.07
2023-05-05T11:03:18.571Z,14.87
2023-05-05T11:06:03.247Z,14.80
2023-05-05T11:08:31.547Z,14.80
2023-05-05T11:10:58.822Z,14.83
2023-05-05T11:13:25.795Z,14.81
2023-05-05T11:15:54.084Z,14.76
2023-05-05T11:18:44.236Z,14.71
2023-05-05T11:21:15.873Z,14.68
2023-05-05T11:23:47.194Z,14.73
2023-05-05T11:26:15.456Z,14.78
2023-05-05T11:29:08.418Z,14.77
2023-05-05T11:31:34.913Z,14.81
2023-05-05T11:34:27.783Z,14.82
2023-05-05T11:37:00.258Z,14.72
2023-05-05T11:39:37.642Z,14.65
2023-05-05T11:42:20.182Z,14.62
2023-05-05T11:44:46.722Z,14.63
2023-05-05T11:47:13.121Z,14.66
2023-05-05T11:49:40.035Z,14.69
2023-05-05T11:52:12.331Z,14.67
2023-05-05T11:54:50.228Z,14.61
2023-05-05T11:57:20.824Z,14.54
2023-05-05T11:59:54.648Z,14.44
2023-05-05T12:02:22.314Z,14.44
2023-05-05T12:04:49.827Z,14.50
2023-05-05T12:07:17.844Z,14.48
2023-05-05T12:09:45.794Z,14.57
2023-05-05T12:12:13.282Z,14.62
2023-05-05T12:14:47.194Z,14.65
2023-05-05T12:17:14.102Z,14.68
2023-05-05T12:19:54.868Z,14.60
2023-05-05T12:22:26.137Z,14.69
2023-05-05T12:25:01.165Z,14.75
2023-05-05T12:27:28.674Z,14.80
2023-05-05T12:29:56.724Z,14.65
2023-05-05T12:32:30.995Z,14.65
2023-05-05T12:34:57.654Z,14.64
2023-05-05T12:37:26.071Z,14.63
2023-05-05T12:39:54.958Z,14.58
2023-05-05T12:42:22.604Z,14.59
2023-05-05T12:44:49.331Z,14.60
2023-05-05T12:47:30.626Z,14.62
2023-05-05T12:49:57.933Z,14.72
2023-05-05T12:52:24.375Z,14.76
2023-05-05T12:54:58.413Z,14.81
2023-05-05T12:57:26.079Z,14.85
2023-05-05T12:59:53.593Z,14.83
2023-05-05T13:02:20.802Z,14.86
2023-05-05T13:04:53.326Z,14.83
2023-05-05T13:07:21.741Z,14.81
2023-05-05T13:09:50.004Z,14.78
2023-05-05T13:12:21.073Z,14.84
2023-05-05T13:14:48.330Z,14.86
2023-05-05T13:17:14.953Z,14.88
2023-05-05T13:19:46.622Z,14.89
2023-05-05T13:22:13.457Z,14.86
2023-05-05T13:24:51.042Z,14.77
2023-05-05T13:27:18.995Z,14.78
2023-05-05T13:29:45.365Z,14.76
2023-05-05T13:32:11.785Z,14.74
2023-05-05T13:34:39.142Z,14.74
2023-05-05T13:37:05.865Z,14.72
2023-05-05T13:39:32.357Z,14.78
2023-05-05T13:41:58.804Z,14.81
2023-05-05T13:44:25.256Z,14.81
2023-05-05T13:46:51.681Z,14.77
2023-05-05T13:49:18.187Z,14.75
2023-05-05T13:51:46.672Z,14.72
2023-05-05T13:54:13.140Z,14.69
2023-05-05T13:56:39.556Z,14.68
2023-05-05T13:59:05.952Z,14.66
2023-05-05T14:01:32.511Z,14.64
2023-05-05T14:03:59.099Z,14.58
2023-05-05T14:06:25.991Z,14.58
2023-05-05T14:08:52.466Z,14.57
2023-05-05T14:11:20.630Z,14.54
2023-05-05T14:13:47.510Z,14.55
2023-05-05T14:16:14.245Z,14.62
2023-05-05T14:18:40.795Z,14.61
2023-05-05T14:21:07.426Z,14.68
2023-05-05T14:23:33.991Z,14.72
2023-05-05T14:26:00.925Z,14.75
2023-05-05T14:28:27.439Z,14.72
2023-05-05T14:30:53.846Z,14.71
2023-05-05T14:33:20.349Z,14.70
2023-05-05T14:35:46.778Z,14.57
2023-05-05T14:38:13.237Z,14.58
2023-05-05T14:40:39.616Z,14.53
2023-05-05T14:43:06.136Z,14.51
2023-05-05T14:45:32.638Z,14.52
2023-05-05T14:47:59.127Z,14.49
2023-05-05T14:50:25.709Z,14.55
2023-05-05T14:52:52.389Z,14.78
2023-05-05T14:55:18.996Z,15.16
2023-05-05T14:57:45.721Z,15.34
2023-05-05T15:00:12.797Z,15.46
2023-05-05T15:02:39.300Z,15.44
2023-05-05T15:05:06.338Z,15.48
2023-05-05T15:07:33.129Z,15.53
2023-05-05T15:09:59.647Z,15.51
2023-05-05T15:12:26.204Z,15.43
2023-05-05T15:14:52.750Z,15.42
2023-05-05T15:17:19.277Z,15.39
2023-05-05T15:19:45.962Z,15.24
2023-05-05T15:22:12.363Z,15.24
2023-05-05T15:24:38.865Z,15.29
2023-05-05T15:27:05.360Z,15.23
2023-05-05T15:29:31.966Z,15.32
2023-05-05T15:31:58.635Z,15.39
2023-05-05T15:34:25.189Z,15.46
2023-05-05T15:36:51.759Z,15.59
2023-05-05T15:39:18.729Z,15.75
2023-05-05T15:41:45.262Z,15.84
2023-05-05T15:44:12.462Z,15.94
2023-05-05T15:46:39.740Z,15.94
2023-05-05T15:49:06.462Z,15.88
2023-05-05T15:51:33.038Z,15.84
2023-05-05T15:54:00.185Z,15.82
2023-05-05T15:56:29.675Z,15.82
2023-05-05T15:58:56.909Z,15.79
2023-05-05T16:01:23.746Z,15.75
2023-05-05T16:03:50.314Z,15.76
2023-05-05T16:06:16.670Z,15.64
2023-05-05T16:08:43.140Z,15.71
2023-05-05T16:11:09.628Z,15.74
2023-05-05T16:13:35.989Z,15.88
2023-05-05T16:16:02.414Z,16.12
2023-05-05T16:18:28.784Z,16.23
2023-05-05T16:20:55.152Z,16.33
2023-05-05T16:23:21.519Z,16.32
2023-05-05T16:25:47.997Z,16.37
2023-05-05T16:28:14.385Z,16.37
2023-05-05T16:30:42.723Z,16.52
2023-05-05T16:33:09.263Z,16.64
2023-05-05T16:35:36.211Z,16.81
2023-05-05T16:38:02.745Z,16.83
2023-05-05T16:40:29.445Z,16.88
2023-05-05T16:42:55.987Z,16.87
2023-05-05T16:45:22.674Z,16.98
2023-05-05T16:47:49.232Z,17.15
2023-05-05T16:50:17.314Z,17.04
2023-05-05T16:52:43.788Z,17.15
2023-05-05T16:55:10.334Z,17.18
2023-05-05T16:57:36.968Z,17.25
2023-05-05T17:00:05.007Z,17.31
2023-05-05T17:02:31.961Z,17.22
2023-05-05T17:04:58.541Z,17.25
2023-05-05T17:07:25.043Z,17.36
2023-05-05T17:09:51.908Z,17.18
2023-05-05T17:12:18.525Z,17.08
2023-05-05T17:14:47.743Z,17.16
2023-05-05T17:17:14.274Z,17.34
2023-05-05T17:19:42.487Z,17.31
2023-05-05T17:22:09.034Z,17.27
2023-05-05T17:24:35.566Z,17.36
2023-05-05T17:27:02.134Z,17.33
2023-05-05T17:29:28.684Z,17.30
2023-05-05T17:31:55.286Z,17.20
2023-05-05T17:34:22.042Z,17.14
2023-05-05T17:36:48.725Z,17.21
2023-05-05T17:39:15.254Z,17.27
2023-05-05T17:41:42.489Z,17.26
2023-05-05T17:44:08.913Z,17.21
2023-05-05T17:46:36.221Z,17.31
2023-05-05T17:49:02.889Z,17.26
2023-05-05T17:51:29.342Z,17.27
2023-05-05T17:53:56.117Z,17.12
2023-05-05T17:56:22.963Z,17.05
2023-05-05T17:58:49.646Z,16.97
2023-05-05T18:01:26.493Z,16.95
2023-05-05T18:03:53.079Z,16.81
2023-05-05T18:06:19.533Z,16.75
2023-05-05T18:08:46.563Z,16.68
2023-05-05T18:11:13.036Z,16.72
2023-05-05T18:13:39.550Z,16.66
2023-05-05T18:16:06.545Z,16.63
2023-05-05T18:18:33.127Z,16.51
2023-05-05T18:20:59.665Z,16.47
2023-05-05T18:23:26.110Z,16.36
2023-05-05T18:25:52.551Z,16.23
2023-05-05T18:28:19.042Z,16.21
2023-05-05T18:30:45.577Z,16.18
2023-05-05T18:33:12.064Z,16.09
2023-05-05T18:35:38.528Z,15.97
2023-05-05T18:38:05.353Z,15.79
2023-05-05T18:40:31.860Z,15.68
2023-05-05T18:42:58.330Z,15.58
2023-05-05T18:45:24.928Z,15.46
2023-05-05T18:47:51.354Z,15.38
2023-05-05T18:50:17.797Z,15.31
2023-05-05T18:52:44.198Z,15.28
2023-05-05T18:55:10.813Z,15.26
2023-05-05T18:57:37.407Z,15.30
2023-05-05T19:00:04.169Z,15.29
2023-05-05T19:02:30.768Z,15.14
2023-05-05T19:04:57.342Z,14.98
2023-05-05T19:07:34.392Z,14.87
2023-05-05T19:10:10.744Z,14.80
2023-05-05T19:12:37.225Z,14.73
2023-05-05T19:15:03.958Z,14.60
2023-05-05T19:17:30.597Z,14.43
2023-05-05T19:19:56.975Z,14.28
2023-05-05T19:22:23.990Z,14.21
2023-05-05T19:24:50.479Z,14.18
2023-05-05T19:27:17.293Z,14.10
2023-05-05T19:29:44.150Z,14.00
2023-05-05T19:32:11.035Z,13.94
2023-05-05T19:34:37.583Z,13.87
2023-05-05T19:37:04.025Z,13.86
2023-05-05T19:39:30.642Z,13.82
2023-05-05T19:41:56.990Z,13.77
2023-05-05T19:44:23.921Z,13.72
2023-05-05T19:46:52.739Z,13.65
2023-05-05T19:49:19.342Z,13.61
2023-05-05T19:51:47.575Z,13.57
2023-05-05T19:54:14.060Z,13.49
2023-05-05T19:56:40.596Z,13.40
2023-05-05T19:59:07.189Z,13.37
2023-05-05T20:01:35.503Z,13.36
2023-05-05T20:04:03.504Z,13.31
2023-05-05T20:06:29.942Z,13.24
2023-05-05T20:08:56.389Z,13.17
2023-05-05T20:11:22.774Z,13.09
2023-05-05T20:13:49.943Z,13.06
2023-05-05T20:16:16.550Z,13.01
2023-05-05T20:18:43.529Z,12.95
2023-05-05T20:21:10.118Z,12.90
2023-05-05T20:23:37.080Z,12.84
2023-05-05T20:26:03.825Z,12.77
2023-05-05T20:28:34.137Z,12.71
2023-05-05T20:31:01.028Z,12.66
2023-05-05T20:33:30.827Z,12.60
2023-05-05T20:35:57.264Z,12.56
2023-05-05T20:38:24.008Z,12.50
2023-05-05T20:40:50.938Z,12.46
2023-05-05T20:43:17.508Z,12.43
2023-05-05T20:45:44.222Z,12.41
2023-05-05T20:48:11.335Z,12.36
2023-05-05T20:50:38.513Z,12.32
2023-05-05T20:53:07.501Z,12.32
2023-05-05T20:55:33.887Z,12.30
2023-05-05T20:58:00.257Z,12.27
2023-05-05T21:00:27.039Z,12.23
2023-05-05T21:02:53.667Z,12.19
2023-05-05T21:05:20.211Z,12.15
2023-05-05T21:07:46.719Z,12.11
2023-05-05T21:10:13.205Z,12.09
2023-05-05T21:12:40.214Z,12.08
2023-05-05T21:15:08.243Z,12.03
2023-05-05T21:17:34.909Z,11.95
2023-05-05T21:20:01.552Z,11.87
2023-05-05T21:22:28.049Z,11.83
2023-05-05T21:24:54.608Z,11.82
2023-05-05T21:27:21.171Z,11.77
2023-05-05T21:29:50.482Z,11.72
2023-05-05T21:32:16.879Z,11.71
2023-05-05T21:34:43.258Z,11.68
2023-05-05T21:37:09.672Z,11.64
2023-05-05T21:39:36.091Z,11.58
2023-05-05T21:42:02.561Z,11.52
2023-05-05T21:44:29.045Z,11.50
2023-05-05T21:46:55.679Z,11.47
2023-05-05T21:49:22.583Z,11.41
2023-05-05T21:51:49.820Z,11.34
2023-05-05T21:54:16.335Z,11.32
2023-05-05T21:56:42.763Z,11.29
2023-05-05T21:59:09.121Z,11.28
2023-05-05T22:01:35.606Z,11.24
2023-05-05T22:04:02.101Z,11.20
2023-05-05T22:06:28.602Z,11.16
2023-05-05T22:08:56.699Z,11.14
2023-05-05T22:11:23.757Z,11.11
2023-05-05T22:13:50.574Z,11.06
2023-05-05T22:16:20.023Z,11.03
2023-05-05T22:18:46.791Z,11.01
2023-05-05T22:21:13.182Z,11.01
2023-05-05T22:23:41.781Z,10.97
2023-05-05T22:26:09.358Z,10.98
2023-05-05T22:28:36.235Z,10.99
2023-05-05T22:31:02.725Z,10.99
2023-05-05T22:33:29.292Z,11.03
2023-05-05T22:35:55.974Z,11.04
2023-05-05T22:38:22.589Z,11.02
2023-05-05T22:40:49.064Z,11.00
2023-05-05T22:43:15.549Z,10.99
2023-05-05T22:45:43.179Z,10.99
2023-05-05T22:48:09.585Z,10.99
2023-05-05T22:50:36.159Z,11.01
2023-05-05T22:53:02.589Z,11.05
2023-05-05T22:55:29.048Z,11.05
2023-05-05T22:57:55.511Z,11.06
2023-05-05T23:00:21.931Z,11.07
2023-05-05T23:02:48.362Z,11.07
2023-05-05T23:05:14.797Z,11.08
2023-05-05T23:07:41.163Z,11.07
2023-05-05T23:10:08.066Z,11.08
2023-05-05T23:12:34.507Z,11.09
2023-05-05T23:15:00.957Z,11.06
2023-05-05T23:17:27.428Z,11.05
2023-05-05T23:19:53.818Z,11.07
2023-05-05T23:22:20.298Z,11.08
2023-05-05T23:24:46.698Z,11.09
2023-05-05T23:27:13.279Z,11.11
2023-05-05T23:29:39.765Z,11.11
2023-05-05T23:32:06.366Z,11.08
2023-05-05T23:34:32.739Z,11.05
2023-05-05T23:36:59.138Z,10.99
2023-05-05T23:39:25.581Z,10.97
2023-05-05T23:41:51.954Z,10.94
2023-05-05T23:44:18.344Z,10.92
2023-05-05T23:46:44.761Z,10.94
2023-05-05T23:49:11.293Z,10.95
2023-05-05T23:51:37.714Z,10.96
2023-05-05T23:54:04.231Z,10.98
2023-05-05T23:56:30.941Z,10.97
2023-05-05T23:58:57.353Z,10.97
